East Jordan, MI

12:59 PM EST on March 04, 2015 (GMT -0500)
2.1 MI NNW of East Jordan(South Field) | Change Station
CLOSE
Current Station
Personal Weather Station
Location: East Jordan, MI
Elevation: 647 ft
Nearby Weather Stations

Elev 647 ft 45.19 °N, 85.15 °W | Updated 5 seconds ago

Mostly Cloudy
Mostly Cloudy
14.7 °F
Feels Like 1 °F
N
12.0
Wind Variable Wind from NNW
Gusts 15.0 mph

Today
High -- | Low -- °F
--% Chance of Precip.
Yesterday
High -- | Low -- °F
Precip. -- in
7:13 AM 6:31 PM
Waxing Gibbous, 99% visible
Pressure 30.02 in
Visibility 10.0 miles
Clouds Overcast 3000 ft
Windchill 1 °F
Dew Point 4 °F
Humidity 61%
Rainfall 0.00 in
Snow Depth Not available.
UV 1 out of 12
Pollen .40 out of 12
Air Quality Not available.
Flu Activity Not available.
METAR KCVX 041754Z AUTO 29010G16KT 10SM OVC030 M10/M16 A3002 RMK AO2 T11051163

More Conditions Fewer Conditions

Pressure 30.02 in
Visibility 10.0 miles
Clouds Overcast 3000 ft
Windchill 1 °F
Dew Point 4 °F
Humidity 61%
Rainfall 0.00 in
Snow Depth Not available.
UV 1 out of 12
Pollen .40 out of 12
Air Quality Not available.
Flu Activity Not available.
METAR KCVX 041754Z AUTO 29010G16KT 10SM OVC030 M10/M16 A3002 RMK AO2 T11051163

More Conditions Fewer Conditions

Nowcast | as of 12:00 PM EST on March 4, 2015

At 1 PM...partly cloudy. Chance of snow showers. Temperature 14. West winds 16 mph. Wind chill 3 below. At 3 PM...mostly cloudy. Chance of snow showers. Temperature 13. West winds 18 mph. Wind chill 4 below. At 5 PM...mostly cloudy. Chance of snow showers. Temperature 12. West winds 17 mph. Wind chill 5 below. At 7 PM...mostly cloudy. Occasional flurries. Temperature 9 above. Northwest winds 14 mph. Wind chill 7 below.

×

10-Day Weather Forecast

Almanac

Astronomy

Mar. 04, 2015 Rise Set
Actual Time
Civil Twilight
Nautical Twilight
Astronomical Twilight
Moon
Length of Visible Light
Length of Day
Tomorrow will be .
, % of the Moon is Illuminated

Today's Extremes

State Highs State Lows

Community

WunderPhotos

Upload Photos

1,802,515 photos uploaded!

WunderBlogs® & News

Nearby

Air Quality

  Air Quality AQ Index Pollutant
Not available.

Snow Depth

Station Depth Elevation

Earthquake Activity

City Distance Mag. Time & Date
Minimum magnitude displayed is 2.5.

Coastal Water Temperatures

Place Temperature

Nearby Weather Stations